Time;durP1;ratioP1;P1;durP2;ratioP2;P2;SDS_P1;SDS_P2;PMS_P1;PMS_P2;Temp;Humidity;BMP_temperature;BMP_pressure;BME280_temperature;BME280_humidity;BME280_pressure;Samples;Min_cycle;Max_cycle;Signal;HPM_P1;HPM_P2
2022/06/07 00:01:04;;;;;;;2.40;0.63;;;13.40;84.30;;;;;;5089860;28;20747;-82
2022/06/07 00:03:31;;;;;;;1.90;0.50;;;13.50;84.30;;;;;;5089555;28;20372;-83
2022/06/07 00:05:58;;;;;;;1.15;0.40;;;13.60;82.20;;;;;;5090020;28;20869;-86
2022/06/07 00:08:26;;;;;;;1.58;0.50;;;13.70;79.10;;;;;;5089967;28;20375;-85
2022/06/07 00:10:53;;;;;;;1.90;0.50;;;13.80;78.80;;;;;;5089539;28;20402;-84
2022/06/07 00:13:21;;;;;;;2.90;0.60;;;13.80;79.00;;;;;;5089281;28;20400;-87
2022/06/07 00:15:48;;;;;;;1.30;0.70;;;13.90;80.80;;;;;;5091739;28;20376;-84
2022/06/07 00:18:15;;;;;;;0.80;0.60;;;13.90;79.50;;;;;;5091874;28;20376;-83
2022/06/07 00:20:43;;;;;;;2.58;0.90;;;13.90;79.00;;;;;;5092085;28;20899;-81
2022/06/07 00:23:14;;;;;;;7.55;1.65;;;14.00;80.50;;;;;;5090096;28;20372;-84
2022/06/07 00:25:42;;;;;;;7.28;1.73;;;14.10;77.90;;;;;;5089118;28;20732;-85
2022/06/07 00:28:10;;;;;;;2.40;0.60;;;14.30;76.50;;;;;;5088433;28;20784;-85
2022/06/07 00:30:37;;;;;;;8.20;0.95;;;14.30;74.50;;;;;;5088926;28;20862;-86
2022/06/07 00:33:05;;;;;;;0.90;0.30;;;14.30;75.00;;;;;;5089033;28;20404;-83
2022/06/07 00:35:32;;;;;;;1.52;0.65;;;14.40;71.70;;;;;;5077342;28;20403;-88
2022/06/07 00:37:59;;;;;;;2.00;0.60;;;14.50;75.40;;;;;;5089123;28;20376;-82
2022/06/07 00:40:27;;;;;;;2.63;0.40;;;14.50;73.80;;;;;;5089097;28;20388;-86
2022/06/07 00:42:54;;;;;;;2.20;0.50;;;14.50;71.80;;;;;;5089624;28;20418;-84
2022/06/07 00:45:23;;;;;;;0.97;0.30;;;14.60;71.70;;;;;;5089189;28;20380;-85
2022/06/07 00:47:50;;;;;;;0.88;0.30;;;14.60;70.00;;;;;;5089003;28;20384;-83
2022/06/07 00:50:45;;;;;;;1.73;0.40;;;14.60;70.40;;;;;;5088718;28;20499;-87
2022/06/07 00:53:32;;;;;;;0.75;0.25;;;14.60;70.20;;;;;;5088611;28;20419;-87
2022/06/07 00:56:05;;;;;;;0.60;0.20;;;14.60;68.60;;;;;;5088670;28;20434;-84
2022/06/07 00:58:35;;;;;;;0.20;0.20;;;14.70;69.70;;;;;;5084454;28;20380;-82
2022/06/07 01:01:03;;;;;;;1.77;0.60;;;14.90;68.60;;;;;;5088794;28;20434;-82
2022/06/07 01:03:30;;;;;;;0.40;0.22;;;14.80;68.00;;;;;;5088694;28;20372;-85
2022/06/07 01:10:43;;;;;;;5.73;1.13;;;14.90;68.90;;;;;;5088829;28;20382;-83
2022/06/07 01:11:29;;;;;;;0.53;0.23;;;15.20;67.70;;;;;;5088859;28;20417;-83
2022/06/07 01:13:56;;;;;;;0.40;0.20;;;15.40;67.30;;;;;;5088366;28;20406;-83
2022/06/07 01:16:24;;;;;;;0.20;0.20;;;15.50;65.50;;;;;;5088479;28;20369;-85
2022/06/07 01:18:51;;;;;;;0.45;0.20;;;15.40;66.80;;;;;;5088462;28;20388;-87
2022/06/07 01:21:20;;;;;;;0.37;0.20;;;15.30;67.50;;;;;;5089012;28;20364;-86
2022/06/07 01:23:48;;;;;;;0.30;0.20;;;15.30;65.00;;;;;;5088499;28;20373;-82
2022/06/07 01:26:16;;;;;;;0.90;0.20;;;15.30;67.20;;;;;;5088630;28;20513;-84
2022/06/07 01:28:43;;;;;;;0.70;0.30;;;15.30;67.40;;;;;;5088188;28;20384;-83
2022/06/07 01:31:10;;;;;;;4.68;0.80;;;15.30;67.50;;;;;;5088189;28;20720;-87
2022/06/07 01:33:38;;;;;;;2.63;0.40;;;15.30;64.80;;;;;;5088175;28;20764;-85
2022/06/07 01:36:11;;;;;;;2.20;0.30;;;15.20;64.00;;;;;;5086666;28;20431;-85
2022/06/07 01:38:40;;;;;;;1.15;0.20;;;15.30;64.20;;;;;;5088529;28;20377;-84
2022/06/07 01:43:55;;;;;;;1.58;0.40;;;15.30;65.10;;;;;;5092318;28;20371;-87
2022/06/07 01:46:22;;;;;;;4.40;0.77;;;15.50;63.60;;;;;;5092194;28;20452;-88
2022/06/07 01:48:49;;;;;;;5.43;1.05;;;15.40;63.60;;;;;;5091904;28;20376;-84
2022/06/07 01:51:17;;;;;;;2.40;0.68;;;15.40;63.30;;;;;;5091627;28;20427;-84
2022/06/07 01:53:45;;;;;;;1.33;0.50;;;15.40;64.10;;;;;;5090423;28;20888;-87
2022/06/07 01:56:15;;;;;;;0.20;0.20;;;15.50;63.20;;;;;;5092031;28;20472;-86
2022/06/07 01:58:43;;;;;;;2.58;0.60;;;15.50;63.30;;;;;;5091758;28;20380;-83
2022/06/07 02:01:12;;;;;;;0.85;0.20;;;15.60;64.00;;;;;;5092542;28;20846;-85
2022/06/07 02:03:41;;;;;;;0.80;0.30;;;15.80;62.70;;;;;;5091590;28;20437;-85
2022/06/07 02:06:11;;;;;;;0.90;0.30;;;15.70;62.00;;;;;;5091669;28;20414;-83
2022/06/07 02:08:40;;;;;;;0.77;0.20;;;15.80;62.80;;;;;;5091907;28;20426;-83
2022/06/07 02:11:15;;;;;;;3.20;0.30;;;15.80;62.20;;;;;;5091622;28;20376;-82
2022/06/07 02:13:43;;;;;;;1.40;0.20;;;15.80;62.30;;;;;;5091501;28;20879;-87
2022/06/07 02:16:11;;;;;;;0.70;0.20;;;15.70;62.70;;;;;;5091560;28;20455;-83
2022/06/07 02:18:38;;;;;;;1.38;0.38;;;15.50;62.00;;;;;;5091709;28;20776;-88
2022/06/07 02:21:07;;;;;;;0.63;0.30;;;15.80;63.20;;;;;;5092031;28;20380;-86
2022/06/07 02:23:35;;;;;;;3.70;0.40;;;15.90;61.60;;;;;;5091633;28;20422;-81
2022/06/07 02:26:08;;;;;;;15.68;1.80;;;16.00;61.70;;;;;;5092228;28;20724;-89
2022/06/07 02:28:38;;;;;;;6.20;0.40;;;16.10;59.70;;;;;;5092035;28;20920;-84
2022/06/07 02:31:07;;;;;;;5.03;1.08;;;16.10;60.20;;;;;;5091825;28;20677;-88
2022/06/07 02:33:36;;;;;;;1.20;0.20;;;16.20;59.70;;;;;;5091648;28;20902;-87
2022/06/07 02:36:05;;;;;;;0.90;0.20;;;15.90;59.20;;;;;;5091057;28;20411;-82
2022/06/07 02:38:33;;;;;;;2.50;0.40;;;15.90;59.10;;;;;;5091024;28;20377;-86
2022/06/07 02:41:05;;;;;;;4.53;0.50;;;15.90;59.60;;;;;;5091415;28;20372;-83
2022/06/07 02:43:32;;;;;;;0.50;0.22;;;16.00;59.90;;;;;;5091081;28;20860;-83
2022/06/07 02:45:59;;;;;;;1.60;0.20;;;16.00;58.70;;;;;;5091259;28;20379;-87
2022/06/07 02:48:26;;;;;;;0.82;0.20;;;16.10;59.60;;;;;;5090801;28;20872;-87
2022/06/07 02:50:53;;;;;;;1.55;0.20;;;16.10;58.50;;;;;;5090453;28;20369;-86
2022/06/07 02:53:21;;;;;;;2.13;0.30;;;15.80;58.50;;;;;;5090014;28;20445;-86
2022/06/07 02:55:48;;;;;;;2.47;0.35;;;15.40;59.20;;;;;;5090696;28;20369;-87
2022/06/07 02:58:15;;;;;;;2.08;0.15;;;15.30;60.00;;;;;;5090728;28;20386;-85
2022/06/07 03:00:42;;;;;;;0.10;0.10;;;15.40;60.80;;;;;;5090695;28;20434;-81
2022/06/07 03:03:10;;;;;;;0.90;0.20;;;15.60;60.10;;;;;;5090551;28;20876;-86
2022/06/07 03:05:37;;;;;;;0.70;0.20;;;15.70;59.80;;;;;;5090414;28;20373;-87
2022/06/07 03:08:04;;;;;;;1.25;0.30;;;15.50;59.30;;;;;;5090651;28;20376;-85
2022/06/07 03:10:32;;;;;;;1.48;0.20;;;15.60;59.00;;;;;;5090558;28;20369;-84
2022/06/07 03:12:59;;;;;;;0.40;0.20;;;15.60;58.50;;;;;;5090442;28;20473;-84
2022/06/07 03:15:28;;;;;;;0.50;0.40;;;15.50;58.30;;;;;;5090475;28;20403;-83
2022/06/07 03:17:55;;;;;;;0.93;0.30;;;15.50;58.20;;;;;;5090261;28;20388;-85
2022/06/07 03:20:23;;;;;;;1.35;0.40;;;15.50;58.20;;;;;;5090330;28;20430;-87
2022/06/07 03:22:50;;;;;;;10.53;0.50;;;15.80;59.20;;;;;;5090052;28;20825;-84
2022/06/07 03:25:17;;;;;;;1.30;0.40;;;15.80;57.40;;;;;;5090330;28;20425;-86
2022/06/07 03:27:44;;;;;;;1.10;0.30;;;15.70;57.10;;;;;;5090182;28;20380;-83
2022/06/07 03:30:12;;;;;;;0.70;0.20;;;15.60;57.60;;;;;;5089988;28;20392;-85
2022/06/07 03:32:39;;;;;;;0.60;0.30;;;15.60;57.70;;;;;;5071820;28;20808;-85
2022/06/07 03:35:06;;;;;;;0.77;0.20;;;15.60;58.50;;;;;;5089638;28;20469;-86
2022/06/07 03:37:34;;;;;;;0.55;0.30;;;15.60;58.20;;;;;;5090208;28;20403;-82
2022/06/07 03:40:01;;;;;;;0.40;0.22;;;15.60;59.00;;;;;;5089695;28;20437;-87
2022/06/07 03:42:28;;;;;;;1.67;0.30;;;15.90;58.20;;;;;;5090052;28;20459;-83
2022/06/07 03:44:55;;;;;;;9.53;0.50;;;15.80;58.50;;;;;;5089697;28;20376;-83
2022/06/07 03:47:22;;;;;;;2.83;0.57;;;15.80;58.00;;;;;;5089702;28;20372;-87
2022/06/07 03:49:49;;;;;;;0.68;0.30;;;15.90;57.90;;;;;;5089548;28;20388;-86
2022/06/07 03:52:17;;;;;;;3.70;0.40;;;15.90;58.40;;;;;;5089543;28;20416;-84
2022/06/07 03:54:45;;;;;;;2.28;0.40;;;16.00;58.20;;;;;;5089564;28;20400;-82
2022/06/07 03:57:13;;;;;;;0.57;0.30;;;16.00;58.20;;;;;;5089586;28;20364;-83
2022/06/07 03:59:40;;;;;;;3.92;0.50;;;16.10;58.40;;;;;;5089499;28;20415;-85
2022/06/07 04:02:07;;;;;;;2.67;0.32;;;16.10;58.40;;;;;;5071223;28;20383;-88
2022/06/07 04:04:36;;;;;;;2.20;0.30;;;16.00;57.70;;;;;;5089604;28;20423;-85
2022/06/07 04:09:50;;;;;;;0.93;0.30;;;15.70;57.90;;;;;;5090007;28;20720;-86
2022/06/07 04:12:18;;;;;;;1.10;0.30;;;15.80;57.80;;;;;;5089426;28;20882;-87
2022/06/07 04:14:46;;;;;;;1.40;0.30;;;15.90;59.20;;;;;;5089282;28;20376;-86
2022/06/07 04:17:14;;;;;;;2.95;0.43;;;15.70;59.80;;;;;;5089263;28;20443;-88
2022/06/07 04:19:43;;;;;;;2.25;0.40;;;15.80;60.60;;;;;;5089289;28;20403;-86
2022/06/07 04:22:11;;;;;;;3.10;0.50;;;15.90;60.80;;;;;;5089329;28;20796;-83
2022/06/07 04:24:38;;;;;;;0.57;0.30;;;15.80;60.80;;;;;;5089012;28;20375;-83
2022/06/07 04:27:06;;;;;;;1.90;0.70;;;15.80;61.40;;;;;;5089126;28;20400;-83
2022/06/07 04:29:33;;;;;;;1.90;0.80;;;15.80;59.50;;;;;;5088836;28;20380;-83
2022/06/07 04:32:00;;;;;;;0.90;0.80;;;15.80;59.90;;;;;;5088847;28;20387;-83
2022/06/07 04:34:28;;;;;;;5.85;2.90;;;15.80;60.00;;;;;;5088648;28;20430;-83
2022/06/07 04:36:55;;;;;;;3.30;2.22;;;15.80;60.70;;;;;;5088704;28;20733;-82
2022/06/07 04:39:22;;;;;;;3.70;3.03;;;16.00;60.60;;;;;;5088830;28;20372;-84
2022/06/07 04:41:50;;;;;;;2.17;0.70;;;16.00;59.20;;;;;;5088724;28;20369;-87
2022/06/07 04:44:17;;;;;;;2.42;1.35;;;15.80;59.90;;;;;;5088714;28;20518;-85
2022/06/07 04:46:44;;;;;;;0.98;0.68;;;15.70;61.00;;;;;;5088690;28;20381;-87
2022/06/07 04:49:11;;;;;;;4.90;4.43;;;15.70;59.20;;;;;;5088604;28;20418;-87
2022/06/07 04:51:39;;;;;;;1.10;0.30;;;15.90;59.30;;;;;;5088594;28;20372;-83
2022/06/07 04:54:06;;;;;;;1.70;0.50;;;16.00;58.00;;;;;;5088840;28;20408;-88
2022/06/07 04:56:37;;;;;;;1.33;0.40;;;15.80;58.60;;;;;;5088890;28;20375;-82
2022/06/07 04:59:07;;;;;;;1.75;0.40;;;15.70;59.90;;;;;;5088809;28;20376;-83
2022/06/07 05:01:37;;;;;;;2.28;0.50;;;15.60;59.40;;;;;;5088565;28;20434;-87
2022/06/07 05:04:05;;;;;;;1.48;0.40;;;15.60;60.30;;;;;;5088827;28;20372;-84
2022/06/07 05:06:36;;;;;;;1.33;0.30;;;15.40;60.90;;;;;;5088517;28;20719;-85
2022/06/07 05:09:10;;;;;;;0.90;0.20;;;15.40;61.50;;;;;;5088858;28;20425;-83
2022/06/07 05:11:38;;;;;;;0.50;0.30;;;15.40;61.00;;;;;;5088706;28;20429;-83
2022/06/07 05:14:07;;;;;;;1.33;0.60;;;15.50;60.60;;;;;;5088607;28;20491;-87
2022/06/07 05:16:39;;;;;;;2.80;1.10;;;15.50;60.90;;;;;;5092069;28;20430;-82
2022/06/07 05:19:07;;;;;;;4.95;0.90;;;15.50;62.20;;;;;;5092524;28;20377;-82
2022/06/07 05:21:34;;;;;;;3.97;1.45;;;15.40;60.20;;;;;;5092730;28;20455;-86
2022/06/07 05:24:02;;;;;;;5.57;2.50;;;15.20;60.20;;;;;;5092395;28;20376;-82
2022/06/07 05:26:41;;;;;;;7.22;4.82;;;15.00;60.80;;;;;;5092317;28;20407;-82
2022/06/07 05:29:34;;;;;;;9.32;4.65;;;14.90;61.70;;;;;;5092633;28;20414;-86
2022/06/07 05:32:02;;;;;;;2.28;1.00;;;14.80;62.30;;;;;;5092228;28;20455;-82
2022/06/07 05:34:29;;;;;;;3.10;1.02;;;14.80;62.20;;;;;;5092047;28;20483;-86
2022/06/07 05:36:56;;;;;;;1.33;1.23;;;14.70;63.00;;;;;;5093018;28;20396;-85
2022/06/07 05:39:26;;;;;;;1.33;0.40;;;14.60;63.10;;;;;;5093016;28;20380;-81
2022/06/07 05:41:53;;;;;;;0.80;0.60;;;14.60;63.10;;;;;;5093189;28;20422;-81
2022/06/07 05:44:22;;;;;;;0.68;0.50;;;14.50;63.80;;;;;;5092368;28;20397;-82
2022/06/07 05:46:50;;;;;;;6.97;5.60;;;14.50;64.00;;;;;;5092098;28;20387;-83
2022/06/07 05:49:17;;;;;;;4.13;1.85;;;14.50;64.20;;;;;;5092156;28;20914;-82
2022/06/07 05:51:45;;;;;;;7.55;5.80;;;14.50;63.80;;;;;;5092584;28;20376;-84
2022/06/07 05:54:14;;;;;;;7.40;5.15;;;14.40;63.80;;;;;;5092076;28;20404;-86
2022/06/07 05:56:41;;;;;;;5.97;4.80;;;14.30;64.20;;;;;;5091848;28;20409;-84
2022/06/07 05:59:09;;;;;;;7.30;6.55;;;14.20;64.60;;;;;;5091765;28;20372;-86
2022/06/07 06:01:36;;;;;;;2.42;1.65;;;14.20;63.50;;;;;;5091768;28;20697;-87
2022/06/07 06:04:06;;;;;;;2.15;0.30;;;14.10;63.10;;;;;;5092735;28;20785;-82
2022/06/07 06:06:35;;;;;;;1.38;0.38;;;14.10;62.20;;;;;;5091773;28;20457;-84
2022/06/07 06:11:48;;;;;;;2.13;0.70;;;14.00;63.60;;;;;;5091932;28;20360;-83
2022/06/07 06:14:15;;;;;;;4.05;0.40;;;14.00;63.60;;;;;;5091505;28;20489;-81
2022/06/07 06:16:42;;;;;;;1.45;0.30;;;13.90;64.00;;;;;;5091604;28;20785;-84
2022/06/07 06:19:10;;;;;;;0.30;0.30;;;13.90;64.20;;;;;;5091681;28;20376;-84
2022/06/07 06:21:40;;;;;;;0.95;0.40;;;13.80;64.80;;;;;;5091505;28;20369;-84
2022/06/07 06:24:09;;;;;;;2.08;0.40;;;13.70;64.60;;;;;;5092330;28;20368;-87
2022/06/07 06:26:38;;;;;;;1.00;0.40;;;13.70;65.70;;;;;;5090472;28;20455;-83
2022/06/07 06:29:08;;;;;;;2.33;0.77;;;13.60;66.10;;;;;;5091660;28;20376;-89
2022/06/07 06:31:36;;;;;;;5.63;0.93;;;13.50;66.70;;;;;;5091364;28;20400;-85
2022/06/07 06:34:06;;;;;;;3.63;2.78;;;13.40;66.80;;;;;;5090857;28;20607;-84
2022/06/07 06:36:34;;;;;;;4.40;2.75;;;13.30;67.00;;;;;;5091024;28;20467;-83
2022/06/07 06:39:01;;;;;;;2.17;1.53;;;13.20;68.30;;;;;;5090900;28;20372;-85
2022/06/07 06:41:31;;;;;;;34.45;28.05;;;13.10;68.30;;;;;;5090965;28;20368;-82
2022/06/07 06:44:01;;;;;;;7.23;4.83;;;13.00;68.80;;;;;;5090946;28;20805;-85
2022/06/07 06:46:33;;;;;;;6.33;4.30;;;12.90;69.70;;;;;;5090879;28;20373;-85
2022/06/07 06:49:03;;;;;;;54.70;42.10;;;12.80;69.50;;;;;;5072706;28;20814;-84
2022/06/07 06:51:30;;;;;;;35.80;29.13;;;12.70;69.70;;;;;;5090738;28;20410;-84
2022/06/07 06:53:59;;;;;;;1.87;0.90;;;12.60;72.10;;;;;;5090697;28;20404;-84
2022/06/07 06:56:31;;;;;;;1.27;0.70;;;12.40;72.60;;;;;;5091092;28;20364;-83
2022/06/07 06:58:59;;;;;;;1.20;0.90;;;12.20;73.00;;;;;;5091261;28;20425;-84
2022/06/07 07:01:32;;;;;;;3.15;2.22;;;12.00;73.30;;;;;;5090535;28;20372;-88
2022/06/07 07:04:16;;;;;;;3.25;1.80;;;11.70;74.60;;;;;;5090785;28;20373;-84
2022/06/07 07:06:45;;;;;;;2.35;2.00;;;11.70;75.50;;;;;;5090455;28;20380;-84
2022/06/07 07:09:14;;;;;;;2.25;1.60;;;11.60;76.80;;;;;;5090490;28;20395;-82
2022/06/07 07:11:48;;;;;;;2.67;1.30;;;11.60;77.60;;;;;;5072248;28;20380;-85
2022/06/07 07:14:15;;;;;;;1.63;1.10;;;11.60;78.50;;;;;;5090285;28;20445;-85
2022/06/07 07:16:50;;;;;;;3.58;1.10;;;11.70;78.30;;;;;;5072142;28;20383;-85
2022/06/07 07:19:18;;;;;;;2.25;1.20;;;11.80;78.60;;;;;;5090158;28;20377;-84
2022/06/07 07:21:48;;;;;;;4.55;1.58;;;11.90;78.80;;;;;;5090369;28;20442;-87
2022/06/07 07:24:21;;;;;;;5.38;1.50;;;11.90;78.10;;;;;;5090486;28;20448;-87
2022/06/07 07:26:50;;;;;;;6.63;1.98;;;11.90;78.80;;;;;;5090623;28;20446;-84
2022/06/07 07:29:20;;;;;;;4.53;1.75;;;12.00;78.50;;;;;;5090483;28;20379;-85
2022/06/07 07:31:48;;;;;;;8.23;2.58;;;12.10;78.00;;;;;;5091180;28;20377;-90
2022/06/07 07:34:16;;;;;;;6.82;2.10;;;12.20;77.20;;;;;;5091827;28;20408;-85
2022/06/07 07:36:47;;;;;;;4.85;1.95;;;12.30;78.10;;;;;;5088917;28;20392;-86
2022/06/07 07:39:14;;;;;;;2.97;1.38;;;12.30;77.40;;;;;;5090412;28;20474;-86
2022/06/07 07:41:45;;;;;;;2.75;1.10;;;12.40;76.60;;;;;;5089781;28;20403;-87
2022/06/07 07:44:16;;;;;;;2.03;0.85;;;12.50;76.80;;;;;;5088840;28;20721;-85
2022/06/07 07:46:44;;;;;;;1.83;0.90;;;12.50;75.40;;;;;;5089922;28;20864;-85
2022/06/07 07:49:17;;;;;;;2.10;0.60;;;12.60;75.60;;;;;;5092517;28;20373;-87
2022/06/07 07:51:46;;;;;;;1.70;0.82;;;12.70;74.50;;;;;;5087615;28;20744;-86
2022/06/07 07:54:16;;;;;;;4.28;0.70;;;12.80;74.40;;;;;;5089813;28;20763;-93
2022/06/07 07:56:44;;;;;;;1.65;0.50;;;12.80;74.80;;;;;;5089252;28;20377;-87
2022/06/07 07:59:14;;;;;;;5.43;0.60;;;12.70;76.60;;;;;;5089943;28;20375;-85
2022/06/07 08:01:42;;;;;;;3.33;0.30;;;12.40;83.00;;;;;;5090315;28;20693;-84
2022/06/07 08:04:10;;;;;;;0.93;0.40;;;11.90;87.50;;;;;;5089602;28;20395;-85
2022/06/07 08:06:37;;;;;;;0.70;0.40;;;11.70;93.00;;;;;;5089415;28;20448;-86
2022/06/07 08:09:08;;;;;;;0.80;0.50;;;11.50;93.90;;;;;;5089406;28;20365;-86
2022/06/07 08:11:37;;;;;;;0.60;0.50;;;11.50;94.90;;;;;;5089481;28;20456;-87
2022/06/07 08:14:08;;;;;;;1.20;0.50;;;11.40;96.60;;;;;;5089259;28;20404;-86
2022/06/07 08:16:36;;;;;;;0.50;0.40;;;11.30;96.70;;;;;;5089705;28;20414;-90
2022/06/07 08:19:03;;;;;;;1.67;0.40;;;11.30;96.80;;;;;;5090221;28;20384;-85
2022/06/07 08:21:30;;;;;;;0.38;0.30;;;11.20;96.80;;;;;;5090616;28;20370;-86
2022/06/07 08:23:58;;;;;;;0.50;0.50;;;11.20;97.70;;;;;;5089669;28;20457;-91
2022/06/07 08:26:26;;;;;;;1.80;0.68;;;11.10;98.10;;;;;;5087936;28;20740;-87
2022/06/07 08:28:55;;;;;;;0.50;0.50;;;11.00;98.70;;;;;;5089377;28;20891;-89
2022/06/07 08:31:26;;;;;;;0.70;0.70;;;10.90;99.30;;;;;;5087781;28;20380;-85
2022/06/07 08:39:28;;;;;;;1.83;0.60;;;10.70;99.90;;;;;;5089704;28;20364;-85
2022/06/07 08:41:58;;;;;;;1.80;1.50;;;10.60;99.90;;;;;;5093288;28;20371;-86
2022/06/07 08:44:33;;;;;;;1.55;0.80;;;10.60;99.90;;;;;;5089024;28;20503;-84
2022/06/07 08:47:06;;;;;;;2.10;1.10;;;10.50;99.90;;;;;;5088730;28;20388;-86
2022/06/07 08:49:34;;;;;;;1.23;0.90;;;10.40;99.90;;;;;;5092908;28;20372;-80
2022/06/07 08:52:14;;;;;;;2.25;0.82;;;10.40;99.90;;;;;;5091640;28;20478;-82
2022/06/07 08:54:42;;;;;;;2.87;1.50;;;10.50;99.90;;;;;;5091904;28;20372;-89
2022/06/07 08:57:30;;;;;;;0.88;0.80;;;10.50;99.90;;;;;;5089221;28;20375;-85
2022/06/07 09:00:20;;;;;;;0.82;0.70;;;10.40;99.90;;;;;;5070462;28;20426;-85
2022/06/07 09:03:12;;;;;;;1.73;0.90;;;10.40;99.90;;;;;;5087741;28;20422;-84
2022/06/07 09:05:41;;;;;;;1.52;0.98;;;10.40;99.90;;;;;;5088909;28;20400;-87
2022/06/07 09:08:16;;;;;;;1.83;1.10;;;10.40;99.90;;;;;;5070335;28;20830;-84
2022/06/07 09:13:34;;;;;;;1.08;0.90;;;10.10;99.90;;;;;;5088775;28;20395;-84
2022/06/07 09:16:02;;;;;;;1.67;0.90;;;10.00;99.90;;;;;;5088367;28;20864;-83
2022/06/07 09:18:31;;;;;;;0.88;0.80;;;10.00;99.90;;;;;;5088421;28;20852;-84
2022/06/07 09:21:08;;;;;;;1.85;0.90;;;10.00;99.90;;;;;;5088004;28;20368;-84
2022/06/07 09:23:50;;;;;;;1.63;0.95;;;10.00;99.90;;;;;;5088218;28;20874;-85
2022/06/07 09:26:31;;;;;;;2.00;0.90;;;10.00;99.90;;;;;;5088177;28;20368;-83
2022/06/07 09:29:16;;;;;;;0.80;0.70;;;9.80;99.90;;;;;;5088412;28;20728;-84
2022/06/07 09:31:46;;;;;;;0.70;0.60;;;9.80;99.90;;;;;;5088561;28;20383;-84
2022/06/07 09:34:25;;;;;;;0.45;0.45;;;9.80;99.90;;;;;;5088101;28;20941;-84
2022/06/07 09:37:00;;;;;;;0.80;0.50;;;9.90;99.90;;;;;;5068283;28;20743;-84
2022/06/07 09:39:38;;;;;;;0.50;0.50;;;9.90;99.90;;;;;;5068106;28;20366;-85
2022/06/07 09:42:20;;;;;;;0.40;0.40;;;9.90;99.90;;;;;;5068076;28;20358;-84
2022/06/07 09:45:26;;;;;;;0.80;0.50;;;9.80;99.90;;;;;;5050246;28;20381;-85
2022/06/07 09:47:57;;;;;;;0.50;0.50;;;9.90;99.90;;;;;;4966700;28;20402;-83
2022/06/07 09:50:33;;;;;;;0.93;0.70;;;9.90;99.90;;;;;;4967563;28;20383;-83
2022/06/07 09:53:09;;;;;;;0.60;0.60;;;9.80;99.90;;;;;;4967047;28;20417;-83
2022/06/07 09:55:42;;;;;;;0.77;0.77;;;9.90;99.90;;;;;;4967475;28;20378;-83
2022/06/07 09:58:42;;;;;;;0.80;0.60;;;9.90;99.90;;;;;;4967895;28;20386;-84
2022/06/07 10:01:29;;;;;;;0.60;0.60;;;9.90;99.90;;;;;;4968830;28;20406;-85
2022/06/07 10:04:17;;;;;;;0.70;0.70;;;9.80;99.90;;;;;;4971316;28;20397;-84
2022/06/07 10:07:02;;;;;;;1.70;0.90;;;9.70;99.90;;;;;;4970873;28;20502;-85
2022/06/07 10:10:02;;;;;;;1.77;1.27;;;9.70;99.90;;;;;;4970768;28;20905;-84
2022/06/07 10:12:41;;;;;;;1.75;1.20;;;9.60;99.90;;;;;;4970502;28;20410;-83
2022/06/07 10:15:38;;;;;;;1.85;0.98;;;9.60;99.90;;;;;;4970732;28;20773;-83
2022/06/07 10:18:31;;;;;;;1.30;1.00;;;9.50;99.90;;;;;;4970995;28;20371;-81
2022/06/07 10:21:05;;;;;;;2.60;2.40;;;9.40;99.90;;;;;;4985751;28;20868;-83
2022/06/07 10:23:41;;;;;;;5.50;3.60;;;9.20;99.90;;;;;;5070950;28;20429;-83
2022/06/07 10:26:20;;;;;;;2.05;1.85;;;9.00;99.90;;;;;;5070986;28;20370;-83
2022/06/07 10:29:26;;;;;;;1.95;1.50;;;8.90;99.90;;;;;;5070824;28;20366;-83
2022/06/07 10:32:25;;;;;;;1.27;1.15;;;9.00;99.90;;;;;;5069167;28;20382;-84
2022/06/07 10:35:10;;;;;;;1.40;0.80;;;9.20;99.90;;;;;;4962181;28;20411;-84
2022/06/07 10:37:45;;;;;;;0.70;0.70;;;9.20;99.90;;;;;;4993078;28;20771;-84
2022/06/07 10:40:16;;;;;;;0.70;0.70;;;9.20;99.90;;;;;;5009649;28;20442;-84
2022/06/07 10:43:16;;;;;;;1.10;0.60;;;9.20;99.90;;;;;;5009422;28;20462;-84
2022/06/07 10:45:44;;;;;;;0.80;0.70;;;9.20;99.90;;;;;;4931775;29;20790;-84
2022/06/07 10:48:35;;;;;;;4.68;4.32;;;9.20;99.90;;;;;;4931555;29;20394;-83
2022/06/07 10:54:57;;;;;;;1.33;1.23;;;9.00;99.90;;;;;;4931725;29;20409;-82
2022/06/07 10:57:34;;;;;;;10.30;9.40;;;8.80;99.90;;;;;;4893401;29;20400;-83
2022/06/07 11:00:17;;;;;;;1.52;1.42;;;8.70;99.90;;;;;;4893472;29;20390;-83
2022/06/07 11:03:00;;;;;;;5.85;5.32;;;8.60;99.90;;;;;;4893902;29;20405;-83
2022/06/07 11:09:22;;;;;;;2.65;2.45;;;8.50;99.90;;;;;;4896074;29;20885;-83
2022/06/07 11:11:57;;;;;;;2.67;2.47;;;8.40;99.90;;;;;;4921844;29;20867;-83
2022/06/07 11:14:38;;;;;;;1.55;1.30;;;8.30;99.90;;;;;;4930853;29;20416;-84
2022/06/07 11:17:23;;;;;;;1.20;1.08;;;8.20;99.90;;;;;;4931466;29;20804;-83
2022/06/07 11:19:52;;;;;;;2.03;1.70;;;8.10;99.90;;;;;;4932645;29;20398;-83
2022/06/07 11:22:22;;;;;;;2.38;1.90;;;8.00;99.90;;;;;;4987865;28;20368;-82
2022/06/07 11:24:59;;;;;;;2.08;1.88;;;7.90;99.90;;;;;;5028075;28;20400;-83
2022/06/07 11:27:30;;;;;;;2.22;1.80;;;7.70;99.90;;;;;;5028081;28;20377;-83
2022/06/07 11:30:36;;;;;;;1.70;1.60;;;7.70;99.90;;;;;;5028578;28;20478;-83
2022/06/07 11:33:22;;;;;;;1.70;1.60;;;7.60;99.90;;;;;;4955254;28;20928;-83
2022/06/07 11:36:11;;;;;;;1.45;1.30;;;7.50;99.90;;;;;;5007900;28;20456;-83
2022/06/07 11:39:00;;;;;;;1.30;1.20;;;7.50;99.90;;;;;;4949776;29;20376;-82
2022/06/07 11:41:39;;;;;;;1.67;1.57;;;7.50;99.90;;;;;;4949683;29;20463;-84
2022/06/07 11:44:12;;;;;;;1.70;1.60;;;7.50;99.90;;;;;;4950200;29;20385;-84
2022/06/07 11:46:57;;;;;;;1.55;1.38;;;7.60;99.90;;;;;;4949739;29;20904;-83
2022/06/07 11:49:24;;;;;;;1.30;1.20;;;7.60;99.90;;;;;;4949722;29;20476;-83
2022/06/07 11:52:03;;;;;;;1.52;1.20;;;7.70;99.90;;;;;;4950056;29;20389;-82
2022/06/07 11:54:48;;;;;;;1.58;1.20;;;7.80;99.90;;;;;;4949742;29;20407;-83
2022/06/07 11:57:38;;;;;;;2.00;1.80;;;7.80;99.90;;;;;;4949675;29;20423;-81
2022/06/07 12:00:21;;;;;;;1.50;1.40;;;7.60;99.90;;;;;;4949566;29;20376;-82
2022/06/07 12:02:57;;;;;;;1.40;1.30;;;7.50;99.90;;;;;;4949390;29;20392;-83
2022/06/07 12:05:54;;;;;;;2.20;1.30;;;7.40;99.90;;;;;;4949311;29;20392;-83
2022/06/07 12:08:28;;;;;;;1.67;1.58;;;7.20;99.90;;;;;;4949829;29;20418;-83
2022/06/07 12:11:20;;;;;;;2.10;1.80;;;7.20;99.90;;;;;;4981130;28;20377;-82
2022/06/07 12:13:56;;;;;;;1.73;1.63;;;7.10;99.90;;;;;;4988631;28;20427;-84
2022/06/07 12:16:52;;;;;;;2.70;1.75;;;7.00;99.90;;;;;;5066803;28;20361;-83
2022/06/07 12:19:34;;;;;;;2.60;2.40;;;7.00;99.90;;;;;;5089749;28;20490;-83
2022/06/07 12:22:07;;;;;;;2.30;2.10;;;6.90;99.90;;;;;;5089131;28;20419;-82
2022/06/07 12:24:48;;;;;;;8.85;5.97;;;6.80;99.90;;;;;;5089377;28;20359;-82
2022/06/07 12:27:24;;;;;;;5.80;4.50;;;6.80;99.90;;;;;;5089143;28;20376;-82
2022/06/07 12:29:55;;;;;;;3.70;2.80;;;6.80;99.90;;;;;;5088981;28;20740;-82
2022/06/07 12:32:33;;;;;;;4.05;3.20;;;6.70;99.90;;;;;;5088738;28;20746;-82
2022/06/07 12:35:08;;;;;;;4.45;3.40;;;6.60;99.90;;;;;;5089144;28;20483;-84
2022/06/07 12:37:38;;;;;;;6.18;4.72;;;6.60;99.90;;;;;;5088838;28;20376;-82
2022/06/07 12:40:24;;;;;;;7.18;5.07;;;6.50;99.90;;;;;;5089426;28;20430;-83
2022/06/07 12:42:51;;;;;;;8.20;7.28;;;6.40;99.90;;;;;;5089195;28;20367;-82
2022/06/07 12:45:33;;;;;;;7.68;6.30;;;6.40;99.90;;;;;;5088588;28;20396;-83
2022/06/07 12:48:19;;;;;;;4.53;3.77;;;6.40;99.90;;;;;;5088567;28;20368;-85
2022/06/07 12:50:47;;;;;;;4.22;2.72;;;6.30;99.90;;;;;;5086408;28;20408;-82
2022/06/07 12:53:29;;;;;;;3.25;2.63;;;6.20;99.90;;;;;;5081280;28;20405;-84
2022/06/07 12:56:13;;;;;;;4.45;2.67;;;6.10;99.90;;;;;;5088875;28;20365;-82
2022/06/07 12:58:47;;;;;;;4.13;2.50;;;6.10;99.90;;;;;;5073014;28;20372;-82
2022/06/07 13:01:25;;;;;;;3.35;2.30;;;6.10;99.90;;;;;;5088564;28;20447;-85
2022/06/07 13:03:57;;;;;;;4.43;2.20;;;6.20;99.90;;;;;;5086129;28;20384;-85
2022/06/07 13:06:27;;;;;;;2.53;1.80;;;6.20;99.90;;;;;;5071024;28;20416;-84
2022/06/07 13:09:19;;;;;;;4.03;2.23;;;6.20;99.90;;;;;;5088342;28;20463;-82
2022/06/07 13:11:47;;;;;;;2.33;1.90;;;6.30;99.90;;;;;;5077669;28;20455;-82
2022/06/07 13:14:17;;;;;;;2.85;1.92;;;6.40;99.90;;;;;;5088572;28;20422;-84
2022/06/07 13:16:48;;;;;;;3.00;2.00;;;6.50;99.90;;;;;;5085604;28;20376;-85
2022/06/07 13:19:17;;;;;;;2.33;1.92;;;6.50;99.90;;;;;;5070342;28;20451;-81
2022/06/07 13:21:56;;;;;;;3.17;1.90;;;6.40;99.90;;;;;;5088335;28;20408;-84
2022/06/07 13:24:36;;;;;;;1.77;1.38;;;6.30;99.90;;;;;;5088395;28;20454;-84
2022/06/07 13:27:43;;;;;;;1.60;1.08;;;6.40;99.90;;;;;;5084259;28;20361;-83
2022/06/07 13:30:27;;;;;;;2.45;1.40;;;6.50;99.90;;;;;;5088243;28;20364;-82
2022/06/07 13:33:12;;;;;;;6.88;6.18;;;6.60;99.90;;;;;;5088499;28;20913;-83
2022/06/07 13:35:59;;;;;;;1.83;1.30;;;6.70;99.90;;;;;;5088425;28;20784;-81
2022/06/07 13:38:36;;;;;;;2.33;1.63;;;7.00;99.90;;;;;;5092648;28;20720;-84
2022/06/07 13:41:18;;;;;;;1.60;1.50;;;7.10;99.90;;;;;;5040538;28;20465;-84
2022/06/07 13:43:55;;;;;;;1.90;1.50;;;7.00;99.90;;;;;;5092409;28;20462;-84
2022/06/07 13:46:55;;;;;;;1.80;1.50;;;6.90;99.90;;;;;;5092716;28;20372;-82